Time;durP1;ratioP1;P1;durP2;ratioP2;P2;SDS_P1;SDS_P2;PMS_P1;PMS_P2;Temp;Humidity;BMP_temperature;BMP_pressure;BME280_temperature;BME280_humidity;BME280_pressure;Samples;Min_cycle;Max_cycle;Signal;HPM_P1;HPM_P2
2022/07/06 00:01:51;;;;;;;6.90;3.63;;;21.50;99.90;;;;;;4990427;28;20211;-64
2022/07/06 00:04:17;;;;;;;3.60;3.20;;;21.40;99.90;;;;;;4989826;28;20435;-66
2022/07/06 00:06:43;;;;;;;6.90;3.90;;;21.50;99.90;;;;;;4989974;28;20166;-65
2022/07/06 00:09:09;;;;;;;5.20;3.40;;;21.50;99.90;;;;;;4988253;28;20489;-66
2022/07/06 00:11:34;;;;;;;6.10;3.23;;;21.50;99.90;;;;;;4989626;28;20257;-66
2022/07/06 00:14:00;;;;;;;6.17;4.17;;;21.40;99.90;;;;;;5003925;28;20200;-66
2022/07/06 00:16:26;;;;;;;5.10;3.57;;;21.40;99.90;;;;;;4989652;28;20199;-66
2022/07/06 00:18:52;;;;;;;41.23;6.20;;;21.40;99.90;;;;;;4988674;28;20181;-66
2022/07/06 00:21:18;;;;;;;24.20;5.10;;;21.50;99.90;;;;;;4989605;28;20169;-66
2022/07/06 00:23:44;;;;;;;5.20;3.10;;;21.50;99.90;;;;;;4988976;28;20584;-66
2022/07/06 00:26:10;;;;;;;8.10;3.60;;;21.40;99.90;;;;;;4989353;28;20662;-64
2022/07/06 00:28:35;;;;;;;3.50;3.20;;;21.50;99.90;;;;;;4988861;28;20471;-67
2022/07/06 00:31:01;;;;;;;5.73;3.70;;;21.40;99.90;;;;;;4984258;28;20182;-67
2022/07/06 00:33:27;;;;;;;4.80;3.40;;;21.40;99.90;;;;;;4970239;28;20267;-67
2022/07/06 00:35:52;;;;;;;4.77;3.90;;;21.40;99.90;;;;;;4969628;28;20189;-66
2022/07/06 00:38:18;;;;;;;9.33;3.40;;;21.30;99.90;;;;;;4968712;28;20184;-66
2022/07/06 00:40:44;;;;;;;8.33;3.80;;;21.30;99.90;;;;;;4968010;28;20296;-66
2022/07/06 00:43:10;;;;;;;11.63;3.90;;;21.30;99.90;;;;;;4969771;28;20204;-66
2022/07/06 00:45:35;;;;;;;3.97;3.67;;;21.10;99.90;;;;;;4969665;28;20603;-67
2022/07/06 00:48:01;;;;;;;5.53;3.50;;;21.10;99.90;;;;;;4969625;28;20173;-67
2022/07/06 00:50:28;;;;;;;9.60;3.70;;;20.90;99.90;;;;;;4969394;28;20244;-67
2022/07/06 00:53:00;;;;;;;4.17;3.77;;;21.00;99.90;;;;;;4969302;28;20646;-67
2022/07/06 00:55:28;;;;;;;4.63;3.47;;;21.00;99.90;;;;;;4967730;28;20457;-67
2022/07/06 00:57:55;;;;;;;4.57;3.97;;;21.10;99.90;;;;;;4968927;28;20447;-67
2022/07/06 01:00:26;;;;;;;4.20;3.80;;;21.00;99.90;;;;;;4976387;28;20964;-66
2022/07/06 01:02:52;;;;;;;5.57;4.00;;;21.00;99.90;;;;;;5004405;28;20431;-66
2022/07/06 01:05:18;;;;;;;3.37;2.90;;;21.10;99.90;;;;;;4989356;28;20435;-66
2022/07/06 01:07:46;;;;;;;4.20;3.10;;;21.10;99.90;;;;;;4987631;28;20487;-67
2022/07/06 01:10:14;;;;;;;8.77;3.80;;;21.10;99.90;;;;;;4988095;28;20926;-67
2022/07/06 01:12:41;;;;;;;3.47;3.13;;;21.10;99.90;;;;;;4989197;28;20412;-66
2022/07/06 01:15:10;;;;;;;4.43;3.20;;;21.10;99.90;;;;;;4988686;28;20436;-66
2022/07/06 01:17:38;;;;;;;9.83;3.77;;;20.90;99.90;;;;;;4988684;28;20464;-66
2022/07/06 01:20:23;;;;;;;4.23;2.90;;;20.80;99.90;;;;;;4970412;28;20894;-66
2022/07/06 01:22:51;;;;;;;3.93;3.53;;;20.80;99.90;;;;;;4969282;28;20396;-65
2022/07/06 01:25:18;;;;;;;5.00;3.27;;;20.70;99.90;;;;;;4968999;28;20535;-66
2022/07/06 01:27:44;;;;;;;7.23;4.37;;;20.70;99.90;;;;;;4967454;28;20460;-66
2022/07/06 01:30:13;;;;;;;11.77;4.00;;;20.70;99.90;;;;;;4968633;28;20835;-65
2022/07/06 01:32:40;;;;;;;14.07;4.43;;;20.60;99.90;;;;;;4969163;28;20216;-66
2022/07/06 01:35:08;;;;;;;4.83;3.70;;;20.60;99.90;;;;;;4967473;28;20460;-66
2022/07/06 01:37:34;;;;;;;4.97;4.57;;;20.60;99.90;;;;;;4968392;28;20416;-64
2022/07/06 01:40:02;;;;;;;6.27;4.17;;;20.60;99.90;;;;;;4968795;28;20453;-64
2022/07/06 01:42:27;;;;;;;6.53;4.47;;;20.50;99.90;;;;;;4969443;28;20424;-65
2022/07/06 01:44:53;;;;;;;9.10;5.10;;;20.40;99.90;;;;;;4968705;28;20436;-64
2022/07/06 01:47:19;;;;;;;6.70;4.60;;;20.40;99.90;;;;;;4968859;28;20174;-64
2022/07/06 01:49:45;;;;;;;90.73;11.63;;;20.40;99.90;;;;;;4968763;28;20238;-66
2022/07/06 01:52:10;;;;;;;6.63;4.07;;;20.30;99.90;;;;;;4969386;28;20180;-65
2022/07/06 01:54:36;;;;;;;5.10;4.60;;;20.30;99.90;;;;;;4968526;28;20810;-63
2022/07/06 01:57:02;;;;;;;5.23;4.23;;;20.40;99.90;;;;;;4968753;28;20542;-65
2022/07/06 01:59:27;;;;;;;6.87;4.23;;;20.50;99.90;;;;;;4967958;28;20204;-65
2022/07/06 02:01:53;;;;;;;8.67;4.80;;;20.50;99.90;;;;;;4950015;28;20309;-65
2022/07/06 02:04:19;;;;;;;5.40;4.83;;;20.30;99.90;;;;;;4949821;28;20194;-65
2022/07/06 02:06:44;;;;;;;6.00;4.93;;;20.20;99.90;;;;;;4949767;29;20663;-65
2022/07/06 02:09:10;;;;;;;7.13;4.70;;;20.00;99.90;;;;;;4949730;28;20213;-65
2022/07/06 02:11:36;;;;;;;5.97;5.37;;;20.00;99.90;;;;;;4953229;28;20182;-65
2022/07/06 02:14:01;;;;;;;10.97;5.30;;;19.90;99.90;;;;;;4951556;28;20201;-64
2022/07/06 02:16:27;;;;;;;11.60;5.30;;;19.90;99.90;;;;;;4953781;29;20175;-66
2022/07/06 02:18:53;;;;;;;6.87;4.93;;;19.90;99.90;;;;;;4952638;28;20175;-67
2022/07/06 02:21:18;;;;;;;7.30;4.57;;;20.10;99.90;;;;;;4953533;29;20675;-65
2022/07/06 02:23:44;;;;;;;7.03;4.77;;;20.30;99.90;;;;;;4953188;28;20521;-66
2022/07/06 02:26:10;;;;;;;5.43;4.27;;;20.20;99.90;;;;;;4952981;28;20206;-65
2022/07/06 02:28:35;;;;;;;6.43;4.40;;;20.30;99.90;;;;;;4952591;29;20170;-66
2022/07/06 02:31:01;;;;;;;5.70;4.13;;;20.30;99.90;;;;;;4957721;28;20193;-67
2022/07/06 02:33:27;;;;;;;9.60;4.43;;;20.30;99.90;;;;;;4972514;28;20213;-66
2022/07/06 02:35:52;;;;;;;9.37;3.73;;;20.20;99.90;;;;;;4972048;28;20178;-66
2022/07/06 02:38:18;;;;;;;6.47;3.80;;;20.10;99.90;;;;;;4971053;28;20197;-66
2022/07/06 02:40:44;;;;;;;4.73;3.57;;;20.00;99.90;;;;;;4971450;28;20276;-66
2022/07/06 02:43:09;;;;;;;5.57;4.00;;;20.00;99.90;;;;;;4970823;28;20289;-66
2022/07/06 02:45:35;;;;;;;9.03;3.83;;;20.00;99.90;;;;;;4972125;28;20205;-65
2022/07/06 02:48:01;;;;;;;3.70;3.40;;;20.10;99.90;;;;;;4971995;28;20256;-64
2022/07/06 02:50:26;;;;;;;5.77;4.13;;;20.10;99.90;;;;;;4971285;28;20673;-65
2022/07/06 02:52:52;;;;;;;9.63;3.70;;;20.10;99.90;;;;;;4971185;28;20174;-64
2022/07/06 02:55:18;;;;;;;24.97;5.40;;;20.00;99.90;;;;;;4971659;28;20232;-65
2022/07/06 02:57:43;;;;;;;10.73;4.97;;;19.90;99.90;;;;;;4971944;28;20209;-67
2022/07/06 03:00:10;;;;;;;18.07;4.33;;;20.10;99.90;;;;;;4976346;28;20255;-67
2022/07/06 03:02:36;;;;;;;27.77;4.43;;;20.10;99.90;;;;;;4991689;28;20550;-66
2022/07/06 03:05:02;;;;;;;12.47;4.77;;;20.20;99.90;;;;;;4990894;28;20457;-66
2022/07/06 03:07:27;;;;;;;19.40;4.23;;;20.10;99.90;;;;;;4991144;28;20510;-65
2022/07/06 03:09:53;;;;;;;12.00;4.43;;;20.00;99.90;;;;;;4990418;28;20176;-65
2022/07/06 03:12:19;;;;;;;15.87;4.87;;;19.90;99.90;;;;;;5006575;28;20195;-66
2022/07/06 03:14:45;;;;;;;44.07;8.00;;;20.00;99.90;;;;;;4991340;28;20192;-63
2022/07/06 03:17:10;;;;;;;11.80;4.07;;;20.10;99.90;;;;;;4991483;28;20236;-66
2022/07/06 03:19:36;;;;;;;8.30;4.10;;;20.00;99.90;;;;;;4991105;28;20274;-66
2022/07/06 03:22:02;;;;;;;10.20;3.77;;;20.10;99.90;;;;;;4990862;28;20283;-63
2022/07/06 03:24:28;;;;;;;6.63;3.30;;;19.90;99.90;;;;;;4990526;28;20537;-67
2022/07/06 03:26:54;;;;;;;7.07;3.60;;;19.70;99.90;;;;;;4990946;28;20181;-65
2022/07/06 03:29:20;;;;;;;13.37;4.87;;;19.50;99.90;;;;;;4990319;28;20200;-66
2022/07/06 03:31:46;;;;;;;5.07;4.67;;;19.50;99.90;;;;;;4980525;28;20591;-64
2022/07/06 03:34:12;;;;;;;11.53;4.70;;;19.70;99.90;;;;;;4984179;23;20485;-66
2022/07/06 03:36:38;;;;;;;21.03;4.80;;;19.70;99.90;;;;;;4971356;28;20173;-67
2022/07/06 03:39:03;;;;;;;11.67;4.50;;;19.90;99.90;;;;;;4970332;28;20325;-66
2022/07/06 03:41:29;;;;;;;41.33;7.63;;;19.90;99.90;;;;;;4970925;28;20906;-66
2022/07/06 03:43:55;;;;;;;10.23;4.23;;;19.90;99.90;;;;;;4970840;28;20194;-66
2022/07/06 03:46:20;;;;;;;17.17;5.77;;;19.60;99.90;;;;;;4971586;28;20166;-67
2022/07/06 03:48:46;;;;;;;46.83;7.20;;;19.30;99.90;;;;;;4970505;28;20170;-67
2022/07/06 03:51:12;;;;;;;14.00;5.10;;;19.60;99.90;;;;;;4970700;28;20208;-67
2022/07/06 03:53:37;;;;;;;8.93;4.40;;;19.80;99.90;;;;;;4970904;28;20273;-66
2022/07/06 03:58:47;;;;;;;7.53;3.70;;;19.50;99.90;;;;;;4970529;28;20172;-66
2022/07/06 04:01:13;;;;;;;11.30;5.87;;;19.30;99.90;;;;;;4984563;28;20452;-67
2022/07/06 04:03:39;;;;;;;4.30;3.90;;;19.30;99.90;;;;;;4990546;28;20181;-67
2022/07/06 04:06:04;;;;;;;13.23;4.63;;;19.40;99.90;;;;;;4990194;28;20173;-66
2022/07/06 04:08:30;;;;;;;12.60;4.97;;;19.20;99.90;;;;;;4989234;28;20165;-66
2022/07/06 04:10:56;;;;;;;4.90;4.30;;;19.60;99.90;;;;;;4992438;28;20184;-67
2022/07/06 04:13:23;;;;;;;28.03;6.03;;;19.50;99.90;;;;;;5001156;28;20268;-67
2022/07/06 04:15:49;;;;;;;17.80;4.63;;;20.00;99.90;;;;;;4992331;28;20260;-66
2022/07/06 04:18:14;;;;;;;21.13;5.17;;;20.10;99.90;;;;;;4991773;28;20460;-67
2022/07/06 04:20:40;;;;;;;5.47;4.27;;;20.30;99.90;;;;;;4963910;28;20198;-67
2022/07/06 04:23:06;;;;;;;14.03;4.40;;;20.50;99.90;;;;;;4970676;28;20173;-67
2022/07/06 04:25:31;;;;;;;13.00;4.30;;;20.80;99.90;;;;;;4970176;28;20287;-66
2022/07/06 04:27:57;;;;;;;11.33;4.30;;;21.10;99.90;;;;;;4969532;28;20509;-65
2022/07/06 04:30:23;;;;;;;10.30;4.60;;;21.30;99.90;;;;;;4969243;28;20669;-66
2022/07/06 04:32:48;;;;;;;31.90;6.23;;;21.50;99.90;;;;;;4970287;28;20558;-66
2022/07/06 04:35:14;;;;;;;12.70;6.10;;;21.50;99.90;;;;;;4969345;28;20566;-67
2022/07/06 04:37:40;;;;;;;13.30;4.57;;;21.60;99.90;;;;;;4969479;28;20296;-67
2022/07/06 04:40:06;;;;;;;33.37;6.20;;;21.50;99.90;;;;;;4968508;28;20324;-67
2022/07/06 04:42:32;;;;;;;9.53;4.37;;;21.60;99.90;;;;;;4967674;28;20165;-67
2022/07/06 04:44:57;;;;;;;4.03;3.70;;;21.80;99.90;;;;;;4967243;28;20839;-67
2022/07/06 04:47:23;;;;;;;6.77;4.10;;;21.70;99.90;;;;;;4967662;28;20170;-67
2022/07/06 04:49:49;;;;;;;5.93;4.23;;;21.70;99.90;;;;;;4967309;28;20165;-68
2022/07/06 04:52:14;;;;;;;7.77;5.10;;;21.40;99.90;;;;;;4967815;28;20177;-68
2022/07/06 04:54:40;;;;;;;4.47;4.07;;;21.70;99.90;;;;;;4967159;28;20292;-67
2022/07/06 04:57:05;;;;;;;16.33;5.37;;;21.40;99.90;;;;;;4967169;28;20237;-66
2022/07/06 04:59:31;;;;;;;19.90;6.53;;;21.80;99.90;;;;;;4967007;28;20533;-66
2022/07/06 05:01:57;;;;;;;14.43;5.83;;;22.00;99.90;;;;;;4969847;28;20182;-66
2022/07/06 05:04:24;;;;;;;14.10;5.90;;;22.20;99.90;;;;;;4966714;28;20220;-67
2022/07/06 05:06:50;;;;;;;18.10;5.63;;;22.40;99.90;;;;;;4964199;28;20607;-68
2022/07/06 05:09:16;;;;;;;9.30;4.47;;;22.50;99.90;;;;;;4962975;28;20429;-68
2022/07/06 05:11:41;;;;;;;15.17;5.47;;;22.60;99.90;;;;;;4965404;28;20188;-67
2022/07/06 05:14:07;;;;;;;15.60;4.67;;;22.70;99.90;;;;;;4967509;28;20873;-68
2022/07/06 05:16:33;;;;;;;9.50;4.90;;;22.80;99.90;;;;;;4966308;28;20182;-68
2022/07/06 05:18:59;;;;;;;7.33;4.10;;;22.70;99.90;;;;;;4966412;28;20182;-67
2022/07/06 05:21:25;;;;;;;18.40;5.27;;;22.70;99.90;;;;;;4967987;28;20503;-68
2022/07/06 05:23:50;;;;;;;17.80;5.60;;;22.80;99.90;;;;;;4966928;28;20201;-67
2022/07/06 05:26:16;;;;;;;18.40;5.37;;;22.90;99.90;;;;;;4949576;28;20175;-67
2022/07/06 05:28:42;;;;;;;13.13;5.60;;;23.00;99.90;;;;;;4956439;28;20249;-67
2022/07/06 05:31:08;;;;;;;8.03;4.33;;;23.00;99.90;;;;;;4967133;28;20265;-67
2022/07/06 05:33:33;;;;;;;24.73;5.20;;;23.00;99.90;;;;;;4966606;28;20197;-69
2022/07/06 05:35:59;;;;;;;32.00;7.00;;;23.10;99.90;;;;;;4967254;28;20261;-67
2022/07/06 05:38:25;;;;;;;8.67;4.40;;;23.00;99.90;;;;;;4966710;28;20601;-68
2022/07/06 05:40:51;;;;;;;9.57;4.47;;;22.90;99.90;;;;;;4960138;28;20225;-68
2022/07/06 05:43:17;;;;;;;7.67;4.20;;;22.90;99.90;;;;;;4961687;28;20409;-68
2022/07/06 05:45:43;;;;;;;16.40;4.17;;;23.20;99.90;;;;;;4970626;28;20170;-68
2022/07/06 05:50:53;;;;;;;55.27;7.23;;;23.20;99.90;;;;;;4970736;28;20237;-68
2022/07/06 05:53:19;;;;;;;9.87;3.70;;;23.30;99.90;;;;;;4971148;28;20413;-68
2022/07/06 05:55:46;;;;;;;24.27;5.50;;;23.50;99.90;;;;;;4971541;28;20193;-68
2022/07/06 05:58:11;;;;;;;11.40;4.40;;;23.60;99.90;;;;;;4973509;28;20170;-67
2022/07/06 06:00:37;;;;;;;8.17;4.27;;;23.70;99.90;;;;;;4971893;28;20456;-67
2022/07/06 06:03:03;;;;;;;4.10;3.70;;;23.70;99.90;;;;;;4971386;28;20205;-68
2022/07/06 06:05:29;;;;;;;7.53;4.47;;;23.50;98.50;;;;;;4970883;28;20252;-66
2022/07/06 06:07:54;;;;;;;5.83;4.47;;;23.80;99.70;;;;;;5002010;28;20177;-69
2022/07/06 06:10:21;;;;;;;5.23;4.40;;;23.90;98.40;;;;;;4973241;28;20179;-67
2022/07/06 06:12:47;;;;;;;11.87;4.90;;;23.60;97.40;;;;;;4964709;28;20186;-67
2022/07/06 06:15:13;;;;;;;11.37;4.90;;;24.00;98.40;;;;;;4967696;28;20476;-68
2022/07/06 06:17:39;;;;;;;6.07;4.30;;;24.30;98.30;;;;;;4977589;28;20421;-66
2022/07/06 06:20:07;;;;;;;7.67;4.40;;;24.20;97.50;;;;;;4967886;28;20200;-67
2022/07/06 06:22:50;;;;;;;8.53;4.10;;;24.30;99.90;;;;;;4965119;28;20469;-68
2022/07/06 06:25:26;;;;;;;5.93;4.10;;;24.40;96.00;;;;;;4963433;28;20440;-70
2022/07/06 06:27:52;;;;;;;51.07;6.90;;;24.50;96.60;;;;;;4974094;28;21021;-68
2022/07/06 06:30:17;;;;;;;16.73;4.57;;;24.60;95.40;;;;;;4974366;28;20464;-68
2022/07/06 06:32:43;;;;;;;6.17;4.50;;;24.70;94.80;;;;;;4980928;28;20182;-68
2022/07/06 06:35:09;;;;;;;4.37;3.93;;;24.70;94.70;;;;;;4971459;28;20276;-68
2022/07/06 06:37:35;;;;;;;9.63;3.67;;;24.70;94.20;;;;;;4974136;28;20246;-68
2022/07/06 06:40:02;;;;;;;7.30;3.53;;;24.50;93.20;;;;;;4969862;28;20197;-67
2022/07/06 06:42:28;;;;;;;4.27;3.87;;;24.70;93.30;;;;;;4973254;28;20425;-68
2022/07/06 06:44:54;;;;;;;5.00;3.80;;;24.50;92.60;;;;;;4965552;28;20979;-66
2022/07/06 06:47:20;;;;;;;7.87;4.60;;;24.50;92.30;;;;;;4971159;28;20220;-67
2022/07/06 06:49:46;;;;;;;10.30;3.80;;;24.50;91.60;;;;;;4972285;28;20545;-67
2022/07/06 06:52:11;;;;;;;18.77;4.57;;;24.60;90.90;;;;;;4972946;28;20441;-69
2022/07/06 06:54:37;;;;;;;11.77;4.43;;;24.70;90.10;;;;;;4973070;28;20205;-68
2022/07/06 06:57:03;;;;;;;41.00;6.80;;;24.90;88.70;;;;;;4972239;28;20295;-68
2022/07/06 06:59:29;;;;;;;9.27;4.67;;;24.60;86.90;;;;;;4972261;28;20193;-68
2022/07/06 07:01:54;;;;;;;14.83;4.50;;;24.80;88.30;;;;;;4952111;28;20182;-68
2022/07/06 07:04:20;;;;;;;19.50;5.87;;;24.40;83.90;;;;;;4951465;28;20198;-68
2022/07/06 07:06:46;;;;;;;10.50;4.10;;;24.70;86.30;;;;;;4953583;29;20726;-69
2022/07/06 07:09:11;;;;;;;65.93;9.53;;;24.80;85.00;;;;;;4951851;28;20186;-67
2022/07/06 07:11:37;;;;;;;12.23;4.03;;;25.30;85.40;;;;;;4952884;28;20182;-67
2022/07/06 07:14:03;;;;;;;31.03;5.50;;;25.30;86.80;;;;;;4952710;29;20190;-68
2022/07/06 07:16:28;;;;;;;8.00;4.20;;;25.60;84.00;;;;;;4953336;28;20181;-68
2022/07/06 07:18:54;;;;;;;13.93;4.83;;;25.60;80.80;;;;;;4953034;28;20170;-68
2022/07/06 07:21:20;;;;;;;7.77;3.63;;;25.60;81.20;;;;;;4953509;28;20209;-68
2022/07/06 07:23:45;;;;;;;11.73;4.70;;;25.40;77.40;;;;;;4953123;28;20562;-68
2022/07/06 07:26:11;;;;;;;12.27;5.00;;;25.70;76.70;;;;;;4953243;28;20181;-68
2022/07/06 07:28:37;;;;;;;278.03;28.20;;;25.80;74.20;;;;;;4952673;28;20198;-68
2022/07/06 07:31:03;;;;;;;73.40;11.23;;;26.10;73.90;;;;;;4957878;28;20185;-68
2022/07/06 07:33:29;;;;;;;63.57;7.90;;;26.20;71.50;;;;;;4973037;28;20224;-68
2022/07/06 07:35:55;;;;;;;138.53;17.20;;;26.10;71.30;;;;;;4973584;28;20801;-67
2022/07/06 07:38:20;;;;;;;9.90;4.77;;;26.30;71.40;;;;;;4972010;28;20252;-68
2022/07/06 07:40:46;;;;;;;12.73;5.47;;;26.50;69.70;;;;;;4972089;28;20193;-68
2022/07/06 07:43:12;;;;;;;73.97;9.37;;;26.70;67.90;;;;;;4971332;28;20602;-67
2022/07/06 07:45:38;;;;;;;12.67;4.27;;;26.80;65.60;;;;;;4971127;28;20621;-67
2022/07/06 07:48:04;;;;;;;66.77;9.20;;;25.80;61.10;;;;;;4988543;28;20173;-68
2022/07/06 07:50:29;;;;;;;19.10;5.50;;;26.00;61.60;;;;;;4990214;28;20827;-68
2022/07/06 07:52:55;;;;;;;7.07;4.00;;;25.80;60.30;;;;;;4990334;28;20425;-68
2022/07/06 07:55:21;;;;;;;4.20;3.80;;;26.20;62.80;;;;;;4990503;28;20223;-68
2022/07/06 07:57:47;;;;;;;19.10;5.80;;;25.50;58.80;;;;;;4990393;28;20172;-68
2022/07/06 08:00:13;;;;;;;8.60;4.90;;;25.70;58.90;;;;;;4970900;28;20255;-68
2022/07/06 08:02:39;;;;;;;4.50;3.50;;;25.50;58.10;;;;;;4971338;28;20188;-68
2022/07/06 08:05:05;;;;;;;20.63;5.00;;;24.80;56.30;;;;;;4971598;28;20429;-67
2022/07/06 08:07:31;;;;;;;17.53;5.13;;;25.40;59.10;;;;;;4970445;28;20587;-67
2022/07/06 08:09:56;;;;;;;40.60;10.67;;;25.30;59.30;;;;;;4970654;28;20500;-67
2022/07/06 08:12:22;;;;;;;25.20;5.80;;;25.90;59.40;;;;;;4972734;28;20228;-67
2022/07/06 08:14:48;;;;;;;12.80;4.90;;;25.60;54.00;;;;;;4970236;28;20216;-68
2022/07/06 08:17:13;;;;;;;23.03;6.70;;;25.80;54.60;;;;;;4971268;28;20310;-68
2022/07/06 08:19:39;;;;;;;27.03;6.03;;;26.30;55.80;;;;;;4970522;28;20265;-68
2022/07/06 08:22:08;;;;;;;17.07;5.23;;;26.70;55.50;;;;;;4971453;28;20265;-68
2022/07/06 08:24:36;;;;;;;15.33;5.63;;;27.00;52.80;;;;;;4970662;28;20204;-68
2022/07/06 08:27:03;;;;;;;6.67;4.17;;;27.00;51.30;;;;;;4970825;28;20475;-69
2022/07/06 08:29:30;;;;;;;4.13;3.50;;;26.90;49.30;;;;;;4970748;28;20508;-68
2022/07/06 08:31:56;;;;;;;12.13;4.17;;;26.80;48.70;;;;;;4970418;28;20822;-68
2022/07/06 08:34:22;;;;;;;6.97;3.70;;;26.50;49.00;;;;;;4970327;28;20492;-69
2022/07/06 08:36:48;;;;;;;7.87;4.37;;;26.70;48.60;;;;;;4970435;28;20424;-67
2022/07/06 08:39:13;;;;;;;15.53;4.43;;;26.50;46.80;;;;;;4968898;28;20487;-67
2022/07/06 08:41:42;;;;;;;14.80;4.50;;;26.40;46.80;;;;;;4969972;28;20653;-68
2022/07/06 08:44:08;;;;;;;36.47;5.67;;;26.30;45.80;;;;;;4950181;28;20198;-67
2022/07/06 08:46:37;;;;;;;13.30;4.20;;;26.50;46.70;;;;;;4961983;28;20929;-67
2022/07/06 08:49:03;;;;;;;3.93;3.60;;;26.70;45.80;;;;;;4988915;28;20502;-67
2022/07/06 08:51:30;;;;;;;123.73;14.13;;;26.00;42.20;;;;;;4989700;28;20486;-67
2022/07/06 08:53:57;;;;;;;90.83;13.00;;;26.30;44.10;;;;;;4989593;28;20451;-68
2022/07/06 08:56:22;;;;;;;10.90;4.37;;;26.60;44.00;;;;;;4975713;28;21181;-68
2022/07/06 08:58:49;;;;;;;121.33;12.53;;;26.80;42.30;;;;;;4969706;28;20490;-69
2022/07/06 09:01:15;;;;;;;4.93;3.40;;;26.90;42.40;;;;;;4969281;28;20260;-67
2022/07/06 09:03:43;;;;;;;7.60;4.50;;;26.40;39.60;;;;;;4969066;28;20456;-68
2022/07/06 09:06:09;;;;;;;20.80;5.53;;;26.00;38.70;;;;;;4970311;28;20472;-69
2022/07/06 09:08:39;;;;;;;6.97;4.20;;;26.20;38.90;;;;;;4968821;28;20499;-68
2022/07/06 09:11:05;;;;;;;33.67;6.97;;;25.80;37.50;;;;;;4969409;28;20420;-67
2022/07/06 09:13:30;;;;;;;19.70;5.80;;;26.10;39.00;;;;;;4970508;28;21149;-68
2022/07/06 09:16:12;;;;;;;10.63;4.27;;;26.70;40.20;;;;;;4969683;28;20514;-68
2022/07/06 09:18:39;;;;;;;16.90;5.30;;;26.80;38.00;;;;;;4969813;28;20177;-68
2022/07/06 09:21:05;;;;;;;8.90;4.37;;;26.80;37.20;;;;;;4973924;28;20467;-68
2022/07/06 09:23:32;;;;;;;13.70;4.77;;;27.00;36.50;;;;;;4973601;28;20428;-68
2022/07/06 09:25:58;;;;;;;33.00;8.40;;;26.90;36.30;;;;;;4973308;28;20412;-68
2022/07/06 09:28:40;;;;;;;20.17;5.00;;;26.90;36.10;;;;;;4973509;28;20430;-69
2022/07/06 09:31:10;;;;;;;10.60;4.10;;;26.90;35.70;;;;;;4972949;28;20268;-68
2022/07/06 09:33:36;;;;;;;17.93;4.87;;;26.70;33.90;;;;;;4996278;23;20520;-69
2022/07/06 09:36:03;;;;;;;67.60;10.10;;;26.60;33.50;;;;;;4973631;28;20395;-68
2022/07/06 09:38:28;;;;;;;45.63;7.07;;;26.90;33.50;;;;;;4972844;28;20408;-68
2022/07/06 09:40:54;;;;;;;4.40;3.77;;;27.00;33.10;;;;;;4973478;28;20528;-69
2022/07/06 09:43:22;;;;;;;4.30;3.90;;;27.10;32.60;;;;;;4974169;28;20289;-68
2022/07/06 09:45:56;;;;;;;6.83;3.60;;;27.10;31.90;;;;;;4973209;28;20396;-68
2022/07/06 09:48:22;;;;;;;13.47;4.03;;;26.40;28.70;;;;;;4935785;29;20397;-67
2022/07/06 09:51:06;;;;;;;8.30;3.77;;;26.40;29.00;;;;;;4954329;28;20500;-69
2022/07/06 09:53:35;;;;;;;14.90;4.33;;;26.60;29.50;;;;;;4954114;28;20762;-70
2022/07/06 09:56:01;;;;;;;8.30;4.23;;;26.50;29.80;;;;;;4963965;28;20448;-70
2022/07/06 09:58:28;;;;;;;8.80;4.03;;;26.40;29.50;;;;;;4971123;28;20426;-70
2022/07/06 10:00:53;;;;;;;55.07;8.20;;;26.30;30.30;;;;;;4972694;28;20567;-70
2022/07/06 10:03:19;;;;;;;17.93;6.70;;;26.40;29.90;;;;;;4973389;28;20567;-71
2022/07/06 10:05:47;;;;;;;5.07;3.90;;;26.40;30.20;;;;;;4973072;28;20167;-70
2022/07/06 10:08:14;;;;;;;6.10;3.90;;;26.50;30.30;;;;;;4972467;28;20241;-70
2022/07/06 10:10:41;;;;;;;11.73;4.97;;;26.40;29.40;;;;;;4972695;28;20417;-70
2022/07/06 10:13:08;;;;;;;4.57;3.37;;;26.60;29.40;;;;;;4971912;28;20416;-70
2022/07/06 10:15:35;;;;;;;7.77;3.87;;;26.90;29.40;;;;;;4972242;28;20797;-71
2022/07/06 10:18:03;;;;;;;6.70;3.63;;;27.00;29.00;;;;;;4972334;28;20844;-70
2022/07/06 10:20:33;;;;;;;14.00;4.77;;;27.20;29.00;;;;;;4972302;28;20530;-70
2022/07/06 10:23:02;;;;;;;8.47;4.60;;;26.70;27.60;;;;;;4971500;28;20464;-69
2022/07/06 10:25:28;;;;;;;35.10;5.73;;;26.80;28.00;;;;;;4970331;28;20487;-70
2022/07/06 10:27:55;;;;;;;6.47;3.57;;;26.80;27.80;;;;;;4971097;28;20412;-70
2022/07/06 10:30:21;;;;;;;4.80;2.90;;;26.50;26.20;;;;;;4970698;28;20216;-69
2022/07/06 10:32:52;;;;;;;7.47;3.50;;;25.90;25.10;;;;;;4972385;28;20432;-70
2022/07/06 10:35:19;;;;;;;13.80;5.40;;;25.80;26.00;;;;;;4971914;28;20475;-69
2022/07/06 10:37:45;;;;;;;14.43;5.93;;;26.10;25.80;;;;;;4970028;28;20417;-70
2022/07/06 10:43:00;;;;;;;10.50;3.90;;;26.60;26.00;;;;;;4972071;28;20451;-70
2022/07/06 10:45:29;;;;;;;15.67;4.10;;;26.60;25.70;;;;;;4972071;28;20451;-69
2022/07/06 10:48:13;;;;;;;7.13;3.70;;;26.70;26.80;;;;;;4986939;28;20909;-70
2022/07/06 10:50:39;;;;;;;8.53;3.80;;;26.70;25.70;;;;;;4992179;28;20904;-69
2022/07/06 10:53:22;;;;;;;3.27;2.97;;;26.70;25.40;;;;;;5005924;28;20420;-70
2022/07/06 10:55:51;;;;;;;38.70;6.40;;;26.40;32.00;;;;;;4983127;28;20491;-70
2022/07/06 10:58:37;;;;;;;31.27;6.40;;;26.50;26.00;;;;;;4972625;28;20413;-69
2022/07/06 11:01:05;;;;;;;10.13;4.10;;;26.60;25.00;;;;;;4974127;28;20467;-70
2022/07/06 11:03:39;;;;;;;16.17;3.90;;;26.50;24.40;;;;;;4975808;28;20500;-69
2022/07/06 11:06:12;;;;;;;9.67;4.00;;;26.30;23.90;;;;;;4974713;28;20506;-69
2022/07/06 11:08:49;;;;;;;3.67;3.27;;;26.10;34.00;;;;;;4972431;28;20493;-69
2022/07/06 11:11:17;;;;;;;20.50;5.03;;;26.20;23.50;;;;;;4973925;28;20412;-69
2022/07/06 11:13:55;;;;;;;8.37;3.77;;;26.40;24.10;;;;;;4972919;28;20429;-69
2022/07/06 11:16:25;;;;;;;17.53;4.93;;;26.50;24.10;;;;;;4971751;28;20403;-70
2022/07/06 11:19:00;;;;;;;20.83;5.30;;;26.80;24.10;;;;;;4971158;28;20409;-68
2022/07/06 11:22:08;;;;;;;5.73;3.27;;;27.00;23.90;;;;;;4971325;28;20503;-67
2022/07/06 11:24:37;;;;;;;3.23;2.73;;;26.70;22.00;;;;;;4969477;28;20491;-68
2022/07/06 11:27:03;;;;;;;6.60;3.57;;;26.50;21.30;;;;;;4973036;28;20531;-69
2022/07/06 11:29:29;;;;;;;16.87;4.43;;;26.50;21.80;;;;;;4976279;28;20897;-70
2022/07/06 11:31:58;;;;;;;10.83;4.60;;;26.00;21.30;;;;;;4977584;28;20488;-68
2022/07/06 11:34:25;;;;;;;18.57;6.87;;;26.20;22.50;;;;;;4975178;28;20464;-68
2022/07/06 11:37:03;;;;;;;38.43;6.90;;;26.40;21.90;;;;;;4973931;28;20487;-68
2022/07/06 11:39:31;;;;;;;6.53;3.90;;;26.70;21.70;;;;;;4972497;28;20475;-68
2022/07/06 11:41:57;;;;;;;13.63;4.40;;;26.70;21.50;;;;;;4972122;28;20401;-70
2022/07/06 11:44:23;;;;;;;7.97;3.20;;;26.70;21.80;;;;;;4976169;28;20452;-69
2022/07/06 11:46:50;;;;;;;12.77;3.63;;;26.50;20.60;;;;;;4978586;28;20432;-68
2022/07/06 11:49:17;;;;;;;13.90;4.17;;;26.50;21.10;;;;;;4971840;28;20165;-68
2022/07/06 11:51:44;;;;;;;6.50;3.30;;;26.60;21.00;;;;;;4972007;28;20491;-68
2022/07/06 11:54:17;;;;;;;4.60;3.57;;;26.70;20.50;;;;;;4971114;28;20484;-69
2022/07/06 11:56:51;;;;;;;28.03;6.63;;;26.70;20.60;;;;;;4969507;28;20412;-69
2022/07/06 11:59:30;;;;;;;3.87;3.40;;;26.60;20.00;;;;;;4970923;28;20417;-68
2022/07/06 12:02:00;;;;;;;3.40;3.10;;;26.50;18.50;;;;;;4971749;28;20405;-68
2022/07/06 12:04:26;;;;;;;9.00;3.53;;;26.40;21.00;;;;;;4971614;28;20491;-68
2022/07/06 12:06:52;;;;;;;4.50;2.90;;;26.80;18.80;;;;;;4964801;28;20418;-68
2022/07/06 12:09:19;;;;;;;11.83;3.30;;;26.80;18.00;;;;;;4960184;28;20400;-68
2022/07/06 12:11:46;;;;;;;5.63;3.00;;;27.00;18.00;;;;;;4960312;28;20169;-69
2022/07/06 12:14:16;;;;;;;6.20;3.30;;;26.90;17.00;;;;;;4958425;28;20508;-68
2022/07/06 12:16:42;;;;;;;27.50;4.50;;;27.00;16.80;;;;;;4960635;28;20404;-69
2022/07/06 12:19:08;;;;;;;17.53;5.03;;;27.00;26.70;;;;;;4960226;28;20409;-68
2022/07/06 12:21:34;;;;;;;10.67;4.80;;;27.00;16.50;;;;;;4958837;28;20807;-68
2022/07/06 12:24:00;;;;;;;3.70;3.17;;;27.00;16.50;;;;;;4959807;28;20451;-69
2022/07/06 12:26:38;;;;;;;21.63;4.10;;;26.80;15.70;;;;;;4959335;28;20406;-70
2022/07/06 12:29:08;;;;;;;4.30;3.33;;;26.70;15.80;;;;;;4959568;28;20796;-70
2022/07/06 12:31:49;;;;;;;13.57;4.07;;;26.90;15.80;;;;;;4960860;28;20413;-67
2022/07/06 12:34:20;;;;;;;13.50;4.63;;;27.00;16.10;;;;;;4960932;28;20455;-68
2022/07/06 12:36:47;;;;;;;16.43;3.73;;;27.10;15.70;;;;;;4953498;28;20420;-68
2022/07/06 12:39:14;;;;;;;5.33;3.57;;;27.00;15.70;;;;;;4958999;28;20412;-70
2022/07/06 12:42:01;;;;;;;7.70;3.37;;;26.40;13.80;;;;;;4964904;28;20401;-68
2022/07/06 12:44:27;;;;;;;21.30;4.80;;;26.50;16.00;;;;;;4966084;28;20443;-70
2022/07/06 12:47:07;;;;;;;11.93;4.47;;;26.50;16.10;;;;;;4964859;28;20746;-73
2022/07/06 12:49:34;;;;;;;16.83;3.47;;;26.80;16.60;;;;;;4958969;28;20162;-69